sensor_id;sensor_type;location;lat;lon;timestamp;temperature;humidity
4376;DHT22;2202;50.866;12.750;2023-10-19T00:01:49;8.10;77.00
4376;DHT22;2202;50.866;12.750;2023-10-19T00:04:16;8.20;76.20
4376;DHT22;2202;50.866;12.750;2023-10-19T00:06:45;8.30;76.00
4376;DHT22;2202;50.866;12.750;2023-10-19T00:09:10;8.30;75.40
4376;DHT22;2202;50.866;12.750;2023-10-19T00:11:38;8.40;74.80
4376;DHT22;2202;50.866;12.750;2023-10-19T00:14:06;8.40;74.40
4376;DHT22;2202;50.866;12.750;2023-10-19T00:16:42;8.50;73.80
4376;DHT22;2202;50.866;12.750;2023-10-19T00:19:10;8.60;73.40
4376;DHT22;2202;50.866;12.750;2023-10-19T00:21:46;8.60;73.40
4376;DHT22;2202;50.866;12.750;2023-10-19T00:24:16;8.70;73.20
4376;DHT22;2202;50.866;12.750;2023-10-19T00:26:45;8.70;73.00
4376;DHT22;2202;50.866;12.750;2023-10-19T00:29:13;8.70;73.20
4376;DHT22;2202;50.866;12.750;2023-10-19T00:31:56;8.70;73.60
4376;DHT22;2202;50.866;12.750;2023-10-19T00:34:23;8.70;74.80
4376;DHT22;2202;50.866;12.750;2023-10-19T00:36:52;8.70;75.80
4376;DHT22;2202;50.866;12.750;2023-10-19T00:39:19;8.70;77.00
4376;DHT22;2202;50.866;12.750;2023-10-19T00:41:47;8.70;77.40
4376;DHT22;2202;50.866;12.750;2023-10-19T00:44:14;8.60;76.40
4376;DHT22;2202;50.866;12.750;2023-10-19T00:46:43;8.50;78.60
4376;DHT22;2202;50.866;12.750;2023-10-19T00:49:15;8.50;80.20
4376;DHT22;2202;50.866;12.750;2023-10-19T00:51:45;8.50;80.60
4376;DHT22;2202;50.866;12.750;2023-10-19T00:54:24;8.50;81.60
4376;DHT22;2202;50.866;12.750;2023-10-19T00:56:58;8.50;81.60
4376;DHT22;2202;50.866;12.750;2023-10-19T00:59:30;8.60;81.60
4376;DHT22;2202;50.866;12.750;2023-10-19T01:02:01;8.60;85.00
4376;DHT22;2202;50.866;12.750;2023-10-19T01:04:42;8.70;85.80
4376;DHT22;2202;50.866;12.750;2023-10-19T01:07:10;8.50;86.20
4376;DHT22;2202;50.866;12.750;2023-10-19T01:09:43;8.50;86.60
4376;DHT22;2202;50.866;12.750;2023-10-19T01:12:12;8.40;87.40
4376;DHT22;2202;50.866;12.750;2023-10-19T01:15:18;8.40;87.80
4376;DHT22;2202;50.866;12.750;2023-10-19T01:17:50;8.40;87.80
4376;DHT22;2202;50.866;12.750;2023-10-19T01:20:20;8.40;88.80
4376;DHT22;2202;50.866;12.750;2023-10-19T01:22:50;8.30;87.20
4376;DHT22;2202;50.866;12.750;2023-10-19T01:25:19;8.30;87.60
4376;DHT22;2202;50.866;12.750;2023-10-19T01:27:52;8.30;87.80
4376;DHT22;2202;50.866;12.750;2023-10-19T01:30:23;8.30;87.40
4376;DHT22;2202;50.866;12.750;2023-10-19T01:32:53;8.30;87.20
4376;DHT22;2202;50.866;12.750;2023-10-19T01:35:19;8.30;87.40
4376;DHT22;2202;50.866;12.750;2023-10-19T01:37:46;8.30;88.00
4376;DHT22;2202;50.866;12.750;2023-10-19T01:40:14;8.30;87.00
4376;DHT22;2202;50.866;12.750;2023-10-19T01:42:46;8.20;88.00
4376;DHT22;2202;50.866;12.750;2023-10-19T01:45:11;8.10;88.60
4376;DHT22;2202;50.866;12.750;2023-10-19T01:47:40;8.10;89.60
4376;DHT22;2202;50.866;12.750;2023-10-19T01:50:09;8.10;90.10
4376;DHT22;2202;50.866;12.750;2023-10-19T01:52:45;8.00;90.40
4376;DHT22;2202;50.866;12.750;2023-10-19T01:55:14;8.00;90.60
4376;DHT22;2202;50.866;12.750;2023-10-19T01:57:46;8.00;90.90
4376;DHT22;2202;50.866;12.750;2023-10-19T02:00:13;7.90;91.50
4376;DHT22;2202;50.866;12.750;2023-10-19T02:02:48;7.90;91.90
4376;DHT22;2202;50.866;12.750;2023-10-19T02:05:16;7.80;92.30
4376;DHT22;2202;50.866;12.750;2023-10-19T02:07:44;7.80;92.80
4376;DHT22;2202;50.866;12.750;2023-10-19T02:10:13;7.70;93.50
4376;DHT22;2202;50.866;12.750;2023-10-19T02:12:41;7.70;93.80
4376;DHT22;2202;50.866;12.750;2023-10-19T02:15:09;7.70;93.90
4376;DHT22;2202;50.866;12.750;2023-10-19T02:17:34;7.80;94.20
4376;DHT22;2202;50.866;12.750;2023-10-19T02:20:02;7.80;94.20
4376;DHT22;2202;50.866;12.750;2023-10-19T02:22:43;7.90;94.30
4376;DHT22;2202;50.866;12.750;2023-10-19T02:25:09;7.90;94.30
4376;DHT22;2202;50.866;12.750;2023-10-19T02:27:38;7.90;94.60
4376;DHT22;2202;50.866;12.750;2023-10-19T02:30:04;7.90;94.60
4376;DHT22;2202;50.866;12.750;2023-10-19T02:32:31;7.90;94.90
4376;DHT22;2202;50.866;12.750;2023-10-19T02:34:58;7.80;94.90
4376;DHT22;2202;50.866;12.750;2023-10-19T02:37:28;7.80;95.10
4376;DHT22;2202;50.866;12.750;2023-10-19T02:39:54;7.90;95.10
4376;DHT22;2202;50.866;12.750;2023-10-19T02:42:21;8.00;95.10
4376;DHT22;2202;50.866;12.750;2023-10-19T02:44:49;8.00;95.10
4376;DHT22;2202;50.866;12.750;2023-10-19T02:47:16;8.10;95.00
4376;DHT22;2202;50.866;12.750;2023-10-19T02:49:43;8.10;94.90
4376;DHT22;2202;50.866;12.750;2023-10-19T02:52:16;8.10;94.90
4376;DHT22;2202;50.866;12.750;2023-10-19T02:54:42;8.20;94.90
4376;DHT22;2202;50.866;12.750;2023-10-19T02:57:09;8.20;95.00
4376;DHT22;2202;50.866;12.750;2023-10-19T02:59:37;8.20;94.80
4376;DHT22;2202;50.866;12.750;2023-10-19T03:02:06;8.30;94.80
4376;DHT22;2202;50.866;12.750;2023-10-19T03:04:33;8.30;94.80
4376;DHT22;2202;50.866;12.750;2023-10-19T03:07:01;8.20;95.10
4376;DHT22;2202;50.866;12.750;2023-10-19T03:09:29;8.20;95.10
4376;DHT22;2202;50.866;12.750;2023-10-19T03:11:56;8.30;95.00
4376;DHT22;2202;50.866;12.750;2023-10-19T03:14:25;8.30;95.00
4376;DHT22;2202;50.866;12.750;2023-10-19T03:16:51;8.30;95.10
4376;DHT22;2202;50.866;12.750;2023-10-19T03:19:21;8.30;95.10
4376;DHT22;2202;50.866;12.750;2023-10-19T03:21:47;8.30;95.10
4376;DHT22;2202;50.866;12.750;2023-10-19T03:24:16;8.30;95.40
4376;DHT22;2202;50.866;12.750;2023-10-19T03:27:01;8.30;95.20
4376;DHT22;2202;50.866;12.750;2023-10-19T03:29:26;8.30;95.10
4376;DHT22;2202;50.866;12.750;2023-10-19T03:31:57;8.30;95.40
4376;DHT22;2202;50.866;12.750;2023-10-19T03:34:26;8.30;95.40
4376;DHT22;2202;50.866;12.750;2023-10-19T03:36:52;8.30;95.60
4376;DHT22;2202;50.866;12.750;2023-10-19T03:39:20;8.30;95.70
4376;DHT22;2202;50.866;12.750;2023-10-19T03:41:47;8.30;95.80
4376;DHT22;2202;50.866;12.750;2023-10-19T03:44:16;8.30;95.90
4376;DHT22;2202;50.866;12.750;2023-10-19T03:46:49;8.30;96.00
4376;DHT22;2202;50.866;12.750;2023-10-19T03:49:21;8.30;96.10
4376;DHT22;2202;50.866;12.750;2023-10-19T03:51:53;8.30;96.20
4376;DHT22;2202;50.866;12.750;2023-10-19T03:54:26;8.30;96.20
4376;DHT22;2202;50.866;12.750;2023-10-19T03:56:52;8.40;96.20
4376;DHT22;2202;50.866;12.750;2023-10-19T03:59:20;8.40;96.30
4376;DHT22;2202;50.866;12.750;2023-10-19T04:01:48;8.40;96.10
4376;DHT22;2202;50.866;12.750;2023-10-19T04:04:15;8.40;96.20
4376;DHT22;2202;50.866;12.750;2023-10-19T04:06:42;8.50;96.30
4376;DHT22;2202;50.866;12.750;2023-10-19T04:09:14;8.50;96.20
4376;DHT22;2202;50.866;12.750;2023-10-19T04:11:44;8.50;96.30
4376;DHT22;2202;50.866;12.750;2023-10-19T04:14:17;8.50;96.30
4376;DHT22;2202;50.866;12.750;2023-10-19T04:16:45;8.60;96.20
4376;DHT22;2202;50.866;12.750;2023-10-19T04:19:14;8.60;96.20
4376;DHT22;2202;50.866;12.750;2023-10-19T04:21:42;8.60;96.20
4376;DHT22;2202;50.866;12.750;2023-10-19T04:24:13;8.70;96.20
4376;DHT22;2202;50.866;12.750;2023-10-19T04:26:40;8.70;96.20
4376;DHT22;2202;50.866;12.750;2023-10-19T04:29:08;8.70;96.30
4376;DHT22;2202;50.866;12.750;2023-10-19T04:31:37;8.80;96.30
4376;DHT22;2202;50.866;12.750;2023-10-19T04:34:14;8.80;96.40
4376;DHT22;2202;50.866;12.750;2023-10-19T04:36:42;8.80;96.40
4376;DHT22;2202;50.866;12.750;2023-10-19T04:39:08;8.80;96.40
4376;DHT22;2202;50.866;12.750;2023-10-19T04:41:40;8.80;96.60
4376;DHT22;2202;50.866;12.750;2023-10-19T04:44:07;8.80;96.60
4376;DHT22;2202;50.866;12.750;2023-10-19T04:46:34;8.80;96.60
4376;DHT22;2202;50.866;12.750;2023-10-19T04:49:01;8.80;96.70
4376;DHT22;2202;50.866;12.750;2023-10-19T04:51:30;8.80;96.80
4376;DHT22;2202;50.866;12.750;2023-10-19T04:53:57;8.80;96.80
4376;DHT22;2202;50.866;12.750;2023-10-19T04:56:23;8.90;96.90
4376;DHT22;2202;50.866;12.750;2023-10-19T04:58:52;8.90;96.90
4376;DHT22;2202;50.866;12.750;2023-10-19T05:01:19;8.90;96.90
4376;DHT22;2202;50.866;12.750;2023-10-19T05:03:46;8.90;97.10
4376;DHT22;2202;50.866;12.750;2023-10-19T05:06:12;9.00;97.40
4376;DHT22;2202;50.866;12.750;2023-10-19T05:08:39;9.00;97.50
4376;DHT22;2202;50.866;12.750;2023-10-19T05:11:06;8.90;97.70
4376;DHT22;2202;50.866;12.750;2023-10-19T05:13:33;9.00;97.80
4376;DHT22;2202;50.866;12.750;2023-10-19T05:16:01;8.90;97.90
4376;DHT22;2202;50.866;12.750;2023-10-19T05:18:28;9.00;98.00
4376;DHT22;2202;50.866;12.750;2023-10-19T05:20:55;9.10;97.90
4376;DHT22;2202;50.866;12.750;2023-10-19T05:23:23;9.10;97.80
4376;DHT22;2202;50.866;12.750;2023-10-19T05:25:50;9.10;97.80
4376;DHT22;2202;50.866;12.750;2023-10-19T05:28:19;9.20;97.80
4376;DHT22;2202;50.866;12.750;2023-10-19T05:30:47;9.20;97.80
4376;DHT22;2202;50.866;12.750;2023-10-19T05:33:17;9.20;97.60
4376;DHT22;2202;50.866;12.750;2023-10-19T05:35:46;9.20;97.80
4376;DHT22;2202;50.866;12.750;2023-10-19T05:38:13;9.20;97.60
4376;DHT22;2202;50.866;12.750;2023-10-19T05:40:40;9.20;97.80
4376;DHT22;2202;50.866;12.750;2023-10-19T05:43:09;9.20;97.80
4376;DHT22;2202;50.866;12.750;2023-10-19T05:45:35;9.20;98.00
4376;DHT22;2202;50.866;12.750;2023-10-19T05:48:03;9.20;98.00
4376;DHT22;2202;50.866;12.750;2023-10-19T05:50:33;9.30;98.20
4376;DHT22;2202;50.866;12.750;2023-10-19T05:53:00;9.20;98.20
4376;DHT22;2202;50.866;12.750;2023-10-19T05:55:27;9.30;98.30
4376;DHT22;2202;50.866;12.750;2023-10-19T05:57:54;9.30;98.20
4376;DHT22;2202;50.866;12.750;2023-10-19T06:00:22;9.30;98.40
4376;DHT22;2202;50.866;12.750;2023-10-19T06:02:52;9.30;98.40
4376;DHT22;2202;50.866;12.750;2023-10-19T06:05:19;9.40;98.20
4376;DHT22;2202;50.866;12.750;2023-10-19T06:07:48;9.40;98.10
4376;DHT22;2202;50.866;12.750;2023-10-19T06:10:17;9.40;98.30
4376;DHT22;2202;50.866;12.750;2023-10-19T06:12:46;9.40;98.30
4376;DHT22;2202;50.866;12.750;2023-10-19T06:15:14;9.50;98.10
4376;DHT22;2202;50.866;12.750;2023-10-19T06:17:42;9.50;98.20
4376;DHT22;2202;50.866;12.750;2023-10-19T06:20:12;9.50;98.20
4376;DHT22;2202;50.866;12.750;2023-10-19T06:22:50;9.50;98.40
4376;DHT22;2202;50.866;12.750;2023-10-19T06:25:18;9.50;98.50
4376;DHT22;2202;50.866;12.750;2023-10-19T06:27:45;9.50;98.50
4376;DHT22;2202;50.866;12.750;2023-10-19T06:30:13;9.60;98.50
4376;DHT22;2202;50.866;12.750;2023-10-19T06:32:45;9.50;98.40
4376;DHT22;2202;50.866;12.750;2023-10-19T06:35:12;9.60;98.60
4376;DHT22;2202;50.866;12.750;2023-10-19T06:37:39;9.60;98.50
4376;DHT22;2202;50.866;12.750;2023-10-19T06:40:08;9.60;98.70
4376;DHT22;2202;50.866;12.750;2023-10-19T06:42:37;9.60;98.70
4376;DHT22;2202;50.866;12.750;2023-10-19T06:45:04;9.60;98.70
4376;DHT22;2202;50.866;12.750;2023-10-19T06:47:32;9.60;98.70
4376;DHT22;2202;50.866;12.750;2023-10-19T06:50:04;9.60;98.80
4376;DHT22;2202;50.866;12.750;2023-10-19T06:52:32;9.70;98.70
4376;DHT22;2202;50.866;12.750;2023-10-19T06:55:01;9.70;98.80
4376;DHT22;2202;50.866;12.750;2023-10-19T06:57:31;9.70;98.70
4376;DHT22;2202;50.866;12.750;2023-10-19T06:59:58;9.80;98.70
4376;DHT22;2202;50.866;12.750;2023-10-19T07:02:25;9.80;98.50
4376;DHT22;2202;50.866;12.750;2023-10-19T07:04:52;9.80;98.50
4376;DHT22;2202;50.866;12.750;2023-10-19T07:07:19;9.80;98.80
4376;DHT22;2202;50.866;12.750;2023-10-19T07:09:46;9.80;99.00
4376;DHT22;2202;50.866;12.750;2023-10-19T07:12:13;9.80;99.20
4376;DHT22;2202;50.866;12.750;2023-10-19T07:14:41;9.80;99.30
4376;DHT22;2202;50.866;12.750;2023-10-19T07:17:07;9.90;99.30
4376;DHT22;2202;50.866;12.750;2023-10-19T07:19:34;9.90;99.20
4376;DHT22;2202;50.866;12.750;2023-10-19T07:22:02;9.90;99.00
4376;DHT22;2202;50.866;12.750;2023-10-19T07:24:30;9.90;99.00
4376;DHT22;2202;50.866;12.750;2023-10-19T07:26:57;9.90;99.10
4376;DHT22;2202;50.866;12.750;2023-10-19T07:29:33;10.00;99.30
4376;DHT22;2202;50.866;12.750;2023-10-19T07:32:03;10.00;99.20
4376;DHT22;2202;50.866;12.750;2023-10-19T07:34:31;10.10;99.40
4376;DHT22;2202;50.866;12.750;2023-10-19T07:36:58;10.20;99.40
4376;DHT22;2202;50.866;12.750;2023-10-19T07:39:26;10.30;99.50
4376;DHT22;2202;50.866;12.750;2023-10-19T07:41:55;10.40;99.30
4376;DHT22;2202;50.866;12.750;2023-10-19T07:44:22;10.50;99.10
4376;DHT22;2202;50.866;12.750;2023-10-19T07:46:49;10.60;98.90
4376;DHT22;2202;50.866;12.750;2023-10-19T07:49:18;10.70;99.00
4376;DHT22;2202;50.866;12.750;2023-10-19T07:51:45;10.70;99.00
4376;DHT22;2202;50.866;12.750;2023-10-19T07:54:12;10.80;98.60
4376;DHT22;2202;50.866;12.750;2023-10-19T07:56:39;10.90;98.50
4376;DHT22;2202;50.866;12.750;2023-10-19T07:59:07;11.00;98.30
4376;DHT22;2202;50.866;12.750;2023-10-19T08:01:34;11.00;98.40
4376;DHT22;2202;50.866;12.750;2023-10-19T08:04:01;11.00;98.40
4376;DHT22;2202;50.866;12.750;2023-10-19T08:06:30;11.00;98.30
4376;DHT22;2202;50.866;12.750;2023-10-19T08:08:57;11.00;98.00
4376;DHT22;2202;50.866;12.750;2023-10-19T08:11:25;11.00;98.20
4376;DHT22;2202;50.866;12.750;2023-10-19T08:13:52;11.10;98.40
4376;DHT22;2202;50.866;12.750;2023-10-19T08:16:20;11.10;98.30
4376;DHT22;2202;50.866;12.750;2023-10-19T08:18:48;11.10;98.10
4376;DHT22;2202;50.866;12.750;2023-10-19T08:21:18;11.00;97.90
4376;DHT22;2202;50.866;12.750;2023-10-19T08:23:46;11.00;98.20
4376;DHT22;2202;50.866;12.750;2023-10-19T08:26:13;11.10;98.10
4376;DHT22;2202;50.866;12.750;2023-10-19T08:28:41;11.10;98.00
4376;DHT22;2202;50.866;12.750;2023-10-19T08:31:09;11.10;98.20
4376;DHT22;2202;50.866;12.750;2023-10-19T08:33:35;11.30;98.10
4376;DHT22;2202;50.866;12.750;2023-10-19T08:36:04;11.40;97.70
4376;DHT22;2202;50.866;12.750;2023-10-19T08:38:31;11.40;97.40
4376;DHT22;2202;50.866;12.750;2023-10-19T08:41:00;11.50;97.50
4376;DHT22;2202;50.866;12.750;2023-10-19T08:43:28;11.60;97.40
4376;DHT22;2202;50.866;12.750;2023-10-19T08:45:59;11.70;97.10
4376;DHT22;2202;50.866;12.750;2023-10-19T08:48:26;11.70;97.10
4376;DHT22;2202;50.866;12.750;2023-10-19T08:50:54;11.70;97.30
4376;DHT22;2202;50.866;12.750;2023-10-19T08:53:22;11.70;97.20
4376;DHT22;2202;50.866;12.750;2023-10-19T08:55:50;11.70;97.40
4376;DHT22;2202;50.866;12.750;2023-10-19T08:58:21;11.70;97.10
4376;DHT22;2202;50.866;12.750;2023-10-19T09:00:49;11.60;97.50
4376;DHT22;2202;50.866;12.750;2023-10-19T09:03:19;11.50;97.40
4376;DHT22;2202;50.866;12.750;2023-10-19T09:05:47;11.50;97.70
4376;DHT22;2202;50.866;12.750;2023-10-19T09:08:15;11.60;97.80
4376;DHT22;2202;50.866;12.750;2023-10-19T09:10:44;11.50;97.80
4376;DHT22;2202;50.866;12.750;2023-10-19T09:13:12;11.50;98.00
4376;DHT22;2202;50.866;12.750;2023-10-19T09:15:42;11.50;98.20
4376;DHT22;2202;50.866;12.750;2023-10-19T09:18:13;11.60;98.50
4376;DHT22;2202;50.866;12.750;2023-10-19T09:20:41;11.60;98.40
4376;DHT22;2202;50.866;12.750;2023-10-19T09:23:18;11.60;98.20
4376;DHT22;2202;50.866;12.750;2023-10-19T09:25:47;11.60;98.30
4376;DHT22;2202;50.866;12.750;2023-10-19T09:28:13;11.60;98.60
4376;DHT22;2202;50.866;12.750;2023-10-19T09:30:43;11.70;98.70
4376;DHT22;2202;50.866;12.750;2023-10-19T09:33:09;11.80;98.70
4376;DHT22;2202;50.866;12.750;2023-10-19T09:35:40;12.00;98.50
4376;DHT22;2202;50.866;12.750;2023-10-19T09:38:09;12.00;97.70
4376;DHT22;2202;50.866;12.750;2023-10-19T09:40:36;12.00;97.60
4376;DHT22;2202;50.866;12.750;2023-10-19T09:43:05;12.00;97.90
4376;DHT22;2202;50.866;12.750;2023-10-19T09:45:37;12.10;98.10
4376;DHT22;2202;50.866;12.750;2023-10-19T09:48:08;12.00;97.70
4376;DHT22;2202;50.866;12.750;2023-10-19T09:50:43;11.90;98.00
4376;DHT22;2202;50.866;12.750;2023-10-19T09:53:11;11.90;98.20
4376;DHT22;2202;50.866;12.750;2023-10-19T09:55:38;11.90;98.20
4376;DHT22;2202;50.866;12.750;2023-10-19T09:58:12;12.00;97.90
4376;DHT22;2202;50.866;12.750;2023-10-19T10:00:43;12.10;98.10
4376;DHT22;2202;50.866;12.750;2023-10-19T10:03:43;12.20;98.00
4376;DHT22;2202;50.866;12.750;2023-10-19T10:06:10;12.30;97.60
4376;DHT22;2202;50.866;12.750;2023-10-19T10:08:40;12.20;97.60
4376;DHT22;2202;50.866;12.750;2023-10-19T10:11:16;12.20;98.20
4376;DHT22;2202;50.866;12.750;2023-10-19T10:13:43;12.20;98.30
4376;DHT22;2202;50.866;12.750;2023-10-19T10:16:13;12.30;98.10
4376;DHT22;2202;50.866;12.750;2023-10-19T10:18:43;12.30;98.20
4376;DHT22;2202;50.866;12.750;2023-10-19T10:21:14;12.40;98.30
4376;DHT22;2202;50.866;12.750;2023-10-19T10:23:43;12.50;98.40
4376;DHT22;2202;50.866;12.750;2023-10-19T10:26:11;12.50;98.10
4376;DHT22;2202;50.866;12.750;2023-10-19T10:28:39;12.60;97.80
4376;DHT22;2202;50.866;12.750;2023-10-19T10:31:13;12.70;97.80
4376;DHT22;2202;50.866;12.750;2023-10-19T10:33:44;12.80;97.80
4376;DHT22;2202;50.866;12.750;2023-10-19T10:36:14;13.00;97.70
4376;DHT22;2202;50.866;12.750;2023-10-19T10:38:44;13.20;97.80
4376;DHT22;2202;50.866;12.750;2023-10-19T10:41:11;13.40;97.30
4376;DHT22;2202;50.866;12.750;2023-10-19T10:43:49;13.50;97.40
4376;DHT22;2202;50.866;12.750;2023-10-19T10:46:18;13.60;96.30
4376;DHT22;2202;50.866;12.750;2023-10-19T10:48:47;13.80;96.10
4376;DHT22;2202;50.866;12.750;2023-10-19T10:51:22;14.00;95.80
4376;DHT22;2202;50.866;12.750;2023-10-19T10:53:50;14.10;93.70
4376;DHT22;2202;50.866;12.750;2023-10-19T10:56:19;13.80;93.90
4376;DHT22;2202;50.866;12.750;2023-10-19T10:58:46;13.70;94.60
4376;DHT22;2202;50.866;12.750;2023-10-19T11:01:13;13.70;94.80
4376;DHT22;2202;50.866;12.750;2023-10-19T11:03:41;13.80;94.80
4376;DHT22;2202;50.866;12.750;2023-10-19T11:06:10;13.80;94.80
4376;DHT22;2202;50.866;12.750;2023-10-19T11:08:38;14.00;94.90
4376;DHT22;2202;50.866;12.750;2023-10-19T11:11:07;14.00;94.70
4376;DHT22;2202;50.866;12.750;2023-10-19T11:13:36;14.00;94.70
4376;DHT22;2202;50.866;12.750;2023-10-19T11:16:05;14.10;95.00
4376;DHT22;2202;50.866;12.750;2023-10-19T11:18:34;14.10;93.80
4376;DHT22;2202;50.866;12.750;2023-10-19T11:21:07;14.00;94.20
4376;DHT22;2202;50.866;12.750;2023-10-19T11:23:37;14.10;94.40
4376;DHT22;2202;50.866;12.750;2023-10-19T11:26:04;14.30;94.30
4376;DHT22;2202;50.866;12.750;2023-10-19T11:28:32;14.40;92.70
4376;DHT22;2202;50.866;12.750;2023-10-19T11:31:12;14.40;93.30
4376;DHT22;2202;50.866;12.750;2023-10-19T11:33:40;14.50;93.90
4376;DHT22;2202;50.866;12.750;2023-10-19T11:36:08;14.50;93.00
4376;DHT22;2202;50.866;12.750;2023-10-19T11:38:42;14.60;92.20
4376;DHT22;2202;50.866;12.750;2023-10-19T11:41:09;14.70;92.60
4376;DHT22;2202;50.866;12.750;2023-10-19T11:43:36;14.70;92.20
4376;DHT22;2202;50.866;12.750;2023-10-19T11:46:03;14.80;91.70
4376;DHT22;2202;50.866;12.750;2023-10-19T11:48:34;14.70;92.60
4376;DHT22;2202;50.866;12.750;2023-10-19T11:51:03;14.70;93.20
4376;DHT22;2202;50.866;12.750;2023-10-19T11:53:31;14.70;93.30
4376;DHT22;2202;50.866;12.750;2023-10-19T11:56:02;14.80;93.10
4376;DHT22;2202;50.866;12.750;2023-10-19T11:58:31;14.80;92.20
4376;DHT22;2202;50.866;12.750;2023-10-19T12:01:00;14.80;92.30
4376;DHT22;2202;50.866;12.750;2023-10-19T12:03:28;14.90;92.50
4376;DHT22;2202;50.866;12.750;2023-10-19T12:05:56;14.90;92.30
4376;DHT22;2202;50.866;12.750;2023-10-19T12:08:23;15.00;91.70
4376;DHT22;2202;50.866;12.750;2023-10-19T12:10:50;15.10;91.90
4376;DHT22;2202;50.866;12.750;2023-10-19T12:13:19;15.10;90.90
4376;DHT22;2202;50.866;12.750;2023-10-19T12:15:49;15.00;91.40
4376;DHT22;2202;50.866;12.750;2023-10-19T12:18:20;15.00;91.80
4376;DHT22;2202;50.866;12.750;2023-10-19T12:20:47;15.10;91.20
4376;DHT22;2202;50.866;12.750;2023-10-19T12:23:14;15.10;91.00
4376;DHT22;2202;50.866;12.750;2023-10-19T12:25:41;15.10;91.20
4376;DHT22;2202;50.866;12.750;2023-10-19T12:28:09;15.10;91.10
4376;DHT22;2202;50.866;12.750;2023-10-19T12:30:41;15.00;91.10
4376;DHT22;2202;50.866;12.750;2023-10-19T12:33:08;15.00;91.10
4376;DHT22;2202;50.866;12.750;2023-10-19T12:35:38;15.10;91.20
4376;DHT22;2202;50.866;12.750;2023-10-19T12:38:11;15.10;91.20
4376;DHT22;2202;50.866;12.750;2023-10-19T12:40:43;15.20;91.00
4376;DHT22;2202;50.866;12.750;2023-10-19T12:43:11;15.50;91.50
4376;DHT22;2202;50.866;12.750;2023-10-19T12:45:41;15.60;89.80
4376;DHT22;2202;50.866;12.750;2023-10-19T12:48:09;15.80;90.40
4376;DHT22;2202;50.866;12.750;2023-10-19T12:50:37;15.80;87.60
4376;DHT22;2202;50.866;12.750;2023-10-19T12:53:07;15.90;88.00
4376;DHT22;2202;50.866;12.750;2023-10-19T12:55:34;15.90;89.00
4376;DHT22;2202;50.866;12.750;2023-10-19T12:58:03;16.00;89.40
4376;DHT22;2202;50.866;12.750;2023-10-19T13:00:35;15.90;89.00
4376;DHT22;2202;50.866;12.750;2023-10-19T13:03:11;16.00;89.80
4376;DHT22;2202;50.866;12.750;2023-10-19T13:05:43;16.20;87.20
4376;DHT22;2202;50.866;12.750;2023-10-19T13:08:11;16.20;86.00
4376;DHT22;2202;50.866;12.750;2023-10-19T13:10:41;16.30;86.80
4376;DHT22;2202;50.866;12.750;2023-10-19T13:13:09;16.20;86.00
4376;DHT22;2202;50.866;12.750;2023-10-19T13:15:39;16.20;87.40
4376;DHT22;2202;50.866;12.750;2023-10-19T13:18:08;16.10;87.60
4376;DHT22;2202;50.866;12.750;2023-10-19T13:20:38;16.00;87.80
4376;DHT22;2202;50.866;12.750;2023-10-19T13:23:07;15.90;88.80
4376;DHT22;2202;50.866;12.750;2023-10-19T13:25:38;16.00;89.60
4376;DHT22;2202;50.866;12.750;2023-10-19T13:28:13;15.90;89.80
4376;DHT22;2202;50.866;12.750;2023-10-19T13:30:42;16.00;90.10
4376;DHT22;2202;50.866;12.750;2023-10-19T13:33:10;15.90;90.30
4376;DHT22;2202;50.866;12.750;2023-10-19T13:35:39;15.80;90.70
4376;DHT22;2202;50.866;12.750;2023-10-19T13:38:07;16.00;91.10
4376;DHT22;2202;50.866;12.750;2023-10-19T13:40:34;16.10;90.30
4376;DHT22;2202;50.866;12.750;2023-10-19T13:43:02;16.40;88.40
4376;DHT22;2202;50.866;12.750;2023-10-19T13:45:32;16.40;88.00
4376;DHT22;2202;50.866;12.750;2023-10-19T13:48:00;16.40;86.20
4376;DHT22;2202;50.866;12.750;2023-10-19T13:50:28;16.30;88.00
4376;DHT22;2202;50.866;12.750;2023-10-19T13:52:57;16.20;87.80
4376;DHT22;2202;50.866;12.750;2023-10-19T13:55:25;16.20;87.00
4376;DHT22;2202;50.866;12.750;2023-10-19T13:57:52;16.10;88.00
4376;DHT22;2202;50.866;12.750;2023-10-19T14:00:20;16.00;88.80
4376;DHT22;2202;50.866;12.750;2023-10-19T14:02:50;16.00;89.20
4376;DHT22;2202;50.866;12.750;2023-10-19T14:05:18;15.90;88.60
4376;DHT22;2202;50.866;12.750;2023-10-19T14:07:45;15.90;89.60
4376;DHT22;2202;50.866;12.750;2023-10-19T14:10:14;16.00;88.20
4376;DHT22;2202;50.866;12.750;2023-10-19T14:12:42;16.10;86.60
4376;DHT22;2202;50.866;12.750;2023-10-19T14:15:13;16.00;87.20
4376;DHT22;2202;50.866;12.750;2023-10-19T14:17:41;15.80;88.20
4376;DHT22;2202;50.866;12.750;2023-10-19T14:20:09;15.70;88.20
4376;DHT22;2202;50.866;12.750;2023-10-19T14:22:44;15.60;88.60
4376;DHT22;2202;50.866;12.750;2023-10-19T14:25:12;15.60;89.40
4376;DHT22;2202;50.866;12.750;2023-10-19T14:27:41;15.70;87.80
4376;DHT22;2202;50.866;12.750;2023-10-19T14:30:11;15.60;89.00
4376;DHT22;2202;50.866;12.750;2023-10-19T14:32:40;15.60;89.60
4376;DHT22;2202;50.866;12.750;2023-10-19T14:35:08;15.60;88.40
4376;DHT22;2202;50.866;12.750;2023-10-19T14:37:38;15.80;87.20
4376;DHT22;2202;50.866;12.750;2023-10-19T14:40:09;15.80;87.40
4376;DHT22;2202;50.866;12.750;2023-10-19T14:42:37;15.70;88.00
4376;DHT22;2202;50.866;12.750;2023-10-19T14:45:08;15.70;89.20
4376;DHT22;2202;50.866;12.750;2023-10-19T14:47:37;15.70;89.60
4376;DHT22;2202;50.866;12.750;2023-10-19T14:50:07;15.80;88.60
4376;DHT22;2202;50.866;12.750;2023-10-19T14:52:36;15.90;88.00
4376;DHT22;2202;50.866;12.750;2023-10-19T14:55:04;16.00;87.20
4376;DHT22;2202;50.866;12.750;2023-10-19T14:57:32;16.00;87.20
4376;DHT22;2202;50.866;12.750;2023-10-19T14:59:59;16.10;88.60
4376;DHT22;2202;50.866;12.750;2023-10-19T15:02:34;16.20;87.80
4376;DHT22;2202;50.866;12.750;2023-10-19T15:05:01;16.20;87.80
4376;DHT22;2202;50.866;12.750;2023-10-19T15:07:29;16.30;87.40
4376;DHT22;2202;50.866;12.750;2023-10-19T15:09:56;16.10;86.40
4376;DHT22;2202;50.866;12.750;2023-10-19T15:12:23;15.90;87.80
4376;DHT22;2202;50.866;12.750;2023-10-19T15:14:50;15.90;89.20
4376;DHT22;2202;50.866;12.750;2023-10-19T15:17:18;16.00;89.00
4376;DHT22;2202;50.866;12.750;2023-10-19T15:19:46;15.90;89.20
4376;DHT22;2202;50.866;12.750;2023-10-19T15:22:17;15.90;89.40
4376;DHT22;2202;50.866;12.750;2023-10-19T15:24:44;15.90;89.20
4376;DHT22;2202;50.866;12.750;2023-10-19T15:27:11;15.80;89.00
4376;DHT22;2202;50.866;12.750;2023-10-19T15:29:38;15.90;88.80
4376;DHT22;2202;50.866;12.750;2023-10-19T15:32:05;15.90;88.60
4376;DHT22;2202;50.866;12.750;2023-10-19T15:34:31;15.80;88.80
4376;DHT22;2202;50.866;12.750;2023-10-19T15:37:01;15.50;89.40
4376;DHT22;2202;50.866;12.750;2023-10-19T15:39:28;15.20;90.50
4376;DHT22;2202;50.866;12.750;2023-10-19T15:41:54;15.10;91.00
4376;DHT22;2202;50.866;12.750;2023-10-19T15:44:21;15.00;91.50
4376;DHT22;2202;50.866;12.750;2023-10-19T15:46:48;14.80;92.20
4376;DHT22;2202;50.866;12.750;2023-10-19T15:49:15;14.70;92.50
4376;DHT22;2202;50.866;12.750;2023-10-19T15:51:42;14.70;92.60
4376;DHT22;2202;50.866;12.750;2023-10-19T15:54:11;14.60;92.30
4376;DHT22;2202;50.866;12.750;2023-10-19T15:56:38;14.30;92.60
4376;DHT22;2202;50.866;12.750;2023-10-19T15:59:05;14.10;92.80
4376;DHT22;2202;50.866;12.750;2023-10-19T16:01:32;13.90;93.00
4376;DHT22;2202;50.866;12.750;2023-10-19T16:04:00;13.80;93.00